sensor_id;sensor_type;location;lat;lon;timestamp;P1;durP1;ratioP1;P2;durP2;ratioP2
51034;SDS011;37062;52.546;13.230;2023-07-20T00:00:10;6.53;;;5.72;;
51034;SDS011;37062;52.546;13.230;2023-07-20T00:02:41;5.15;;;4.47;;
51034;SDS011;37062;52.546;13.230;2023-07-20T00:05:10;3.88;;;3.50;;
51034;SDS011;37062;52.546;13.230;2023-07-20T00:07:39;7.28;;;4.30;;
51034;SDS011;37062;52.546;13.230;2023-07-20T00:10:08;6.07;;;3.03;;
51034;SDS011;37062;52.546;13.230;2023-07-20T00:12:36;9.32;;;4.72;;
51034;SDS011;37062;52.546;13.230;2023-07-20T00:15:05;4.25;;;2.92;;
51034;SDS011;37062;52.546;13.230;2023-07-20T00:17:33;3.78;;;2.40;;
51034;SDS011;37062;52.546;13.230;2023-07-20T00:20:05;3.95;;;2.70;;
51034;SDS011;37062;52.546;13.230;2023-07-20T00:22:35;4.43;;;2.42;;
51034;SDS011;37062;52.546;13.230;2023-07-20T00:25:04;4.82;;;2.50;;
51034;SDS011;37062;52.546;13.230;2023-07-20T00:27:32;5.15;;;2.80;;
51034;SDS011;37062;52.546;13.230;2023-07-20T00:30:01;3.72;;;2.58;;
51034;SDS011;37062;52.546;13.230;2023-07-20T00:32:32;2.67;;;2.30;;
51034;SDS011;37062;52.546;13.230;2023-07-20T00:35:23;3.78;;;2.80;;
51034;SDS011;37062;52.546;13.230;2023-07-20T00:38:10;4.35;;;2.80;;
51034;SDS011;37062;52.546;13.230;2023-07-20T00:41:05;3.25;;;2.60;;
51034;SDS011;37062;52.546;13.230;2023-07-20T00:44:00;4.75;;;2.58;;
51034;SDS011;37062;52.546;13.230;2023-07-20T00:46:51;3.45;;;2.65;;
51034;SDS011;37062;52.546;13.230;2023-07-20T00:49:25;4.47;;;3.05;;
51034;SDS011;37062;52.546;13.230;2023-07-20T00:52:21;4.75;;;2.88;;
51034;SDS011;37062;52.546;13.230;2023-07-20T00:55:05;4.32;;;2.97;;
51034;SDS011;37062;52.546;13.230;2023-07-20T00:58:01;3.35;;;2.60;;
51034;SDS011;37062;52.546;13.230;2023-07-20T01:00:45;3.88;;;3.05;;
51034;SDS011;37062;52.546;13.230;2023-07-20T01:03:44;3.10;;;2.78;;
51034;SDS011;37062;52.546;13.230;2023-07-20T01:06:36;2.50;;;2.30;;
51034;SDS011;37062;52.546;13.230;2023-07-20T01:09:51;4.30;;;2.92;;
51034;SDS011;37062;52.546;13.230;2023-07-20T01:13:04;4.45;;;3.40;;
51034;SDS011;37062;52.546;13.230;2023-07-20T01:16:03;3.35;;;3.05;;
51034;SDS011;37062;52.546;13.230;2023-07-20T01:19:05;3.15;;;2.85;;
51034;SDS011;37062;52.546;13.230;2023-07-20T01:22:14;4.60;;;3.05;;
51034;SDS011;37062;52.546;13.230;2023-07-20T01:28:21;5.82;;;3.20;;
51034;SDS011;37062;52.546;13.230;2023-07-20T01:31:26;3.17;;;2.80;;
51034;SDS011;37062;52.546;13.230;2023-07-20T01:34:07;4.40;;;3.50;;
51034;SDS011;37062;52.546;13.230;2023-07-20T01:36:49;3.25;;;2.95;;
51034;SDS011;37062;52.546;13.230;2023-07-20T01:39:25;3.42;;;3.13;;
51034;SDS011;37062;52.546;13.230;2023-07-20T01:41:56;2.90;;;2.70;;
51034;SDS011;37062;52.546;13.230;2023-07-20T01:44:27;3.08;;;2.80;;
51034;SDS011;37062;52.546;13.230;2023-07-20T01:47:00;3.83;;;2.60;;
51034;SDS011;37062;52.546;13.230;2023-07-20T01:49:35;3.40;;;3.08;;
51034;SDS011;37062;52.546;13.230;2023-07-20T01:52:06;4.93;;;3.78;;
51034;SDS011;37062;52.546;13.230;2023-07-20T01:54:34;3.42;;;2.75;;
51034;SDS011;37062;52.546;13.230;2023-07-20T01:57:03;3.75;;;3.10;;
51034;SDS011;37062;52.546;13.230;2023-07-20T01:59:34;6.15;;;3.30;;
51034;SDS011;37062;52.546;13.230;2023-07-20T02:02:09;4.22;;;3.70;;
51034;SDS011;37062;52.546;13.230;2023-07-20T02:04:37;4.60;;;3.88;;
51034;SDS011;37062;52.546;13.230;2023-07-20T02:07:06;4.97;;;3.85;;
51034;SDS011;37062;52.546;13.230;2023-07-20T02:09:35;3.67;;;3.38;;
51034;SDS011;37062;52.546;13.230;2023-07-20T02:12:07;5.03;;;3.10;;
51034;SDS011;37062;52.546;13.230;2023-07-20T02:14:36;5.00;;;3.42;;
51034;SDS011;37062;52.546;13.230;2023-07-20T02:17:05;5.15;;;3.40;;
51034;SDS011;37062;52.546;13.230;2023-07-20T02:19:35;6.53;;;3.50;;
51034;SDS011;37062;52.546;13.230;2023-07-20T02:22:03;4.70;;;3.85;;
51034;SDS011;37062;52.546;13.230;2023-07-20T02:24:32;3.80;;;3.50;;
51034;SDS011;37062;52.546;13.230;2023-07-20T02:27:00;5.13;;;3.30;;
51034;SDS011;37062;52.546;13.230;2023-07-20T02:29:28;3.55;;;3.25;;
51034;SDS011;37062;52.546;13.230;2023-07-20T02:31:57;3.83;;;3.38;;
51034;SDS011;37062;52.546;13.230;2023-07-20T02:34:25;5.78;;;4.10;;
51034;SDS011;37062;52.546;13.230;2023-07-20T02:36:54;4.20;;;3.80;;
51034;SDS011;37062;52.546;13.230;2023-07-20T02:39:24;5.63;;;4.30;;
51034;SDS011;37062;52.546;13.230;2023-07-20T02:41:54;5.45;;;3.78;;
51034;SDS011;37062;52.546;13.230;2023-07-20T02:44:22;7.00;;;4.03;;
51034;SDS011;37062;52.546;13.230;2023-07-20T02:46:50;5.65;;;4.38;;
51034;SDS011;37062;52.546;13.230;2023-07-20T02:49:19;5.65;;;4.68;;
51034;SDS011;37062;52.546;13.230;2023-07-20T02:51:47;5.95;;;5.32;;
51034;SDS011;37062;52.546;13.230;2023-07-20T02:54:17;6.55;;;5.32;;
51034;SDS011;37062;52.546;13.230;2023-07-20T02:56:45;5.68;;;5.07;;
51034;SDS011;37062;52.546;13.230;2023-07-20T02:59:13;6.15;;;5.28;;
51034;SDS011;37062;52.546;13.230;2023-07-20T03:01:41;5.88;;;4.90;;
51034;SDS011;37062;52.546;13.230;2023-07-20T03:04:10;7.22;;;5.38;;
51034;SDS011;37062;52.546;13.230;2023-07-20T03:06:38;5.75;;;5.18;;
51034;SDS011;37062;52.546;13.230;2023-07-20T03:09:06;6.10;;;5.45;;
51034;SDS011;37062;52.546;13.230;2023-07-20T03:11:37;5.85;;;4.68;;
51034;SDS011;37062;52.546;13.230;2023-07-20T03:14:05;5.07;;;4.57;;
51034;SDS011;37062;52.546;13.230;2023-07-20T03:16:33;5.22;;;4.75;;
51034;SDS011;37062;52.546;13.230;2023-07-20T03:19:02;4.97;;;4.18;;
51034;SDS011;37062;52.546;13.230;2023-07-20T03:21:31;6.07;;;5.07;;
51034;SDS011;37062;52.546;13.230;2023-07-20T03:23:59;6.65;;;6.05;;
51034;SDS011;37062;52.546;13.230;2023-07-20T03:26:27;5.75;;;5.18;;
51034;SDS011;37062;52.546;13.230;2023-07-20T03:28:57;8.02;;;5.95;;
51034;SDS011;37062;52.546;13.230;2023-07-20T03:31:26;7.72;;;6.00;;
51034;SDS011;37062;52.546;13.230;2023-07-20T03:33:54;8.30;;;6.90;;
51034;SDS011;37062;52.546;13.230;2023-07-20T03:36:23;8.15;;;6.30;;
51034;SDS011;37062;52.546;13.230;2023-07-20T03:38:51;8.30;;;6.72;;
51034;SDS011;37062;52.546;13.230;2023-07-20T03:41:20;6.28;;;5.53;;
51034;SDS011;37062;52.546;13.230;2023-07-20T03:43:48;7.72;;;5.82;;
51034;SDS011;37062;52.546;13.230;2023-07-20T03:46:18;5.95;;;5.32;;
51034;SDS011;37062;52.546;13.230;2023-07-20T03:48:47;7.45;;;6.15;;
51034;SDS011;37062;52.546;13.230;2023-07-20T03:51:15;5.93;;;5.32;;
51034;SDS011;37062;52.546;13.230;2023-07-20T03:53:43;6.88;;;6.18;;
51034;SDS011;37062;52.546;13.230;2023-07-20T03:56:12;6.55;;;5.95;;
51034;SDS011;37062;52.546;13.230;2023-07-20T03:58:40;6.43;;;5.63;;
51034;SDS011;37062;52.546;13.230;2023-07-20T04:01:08;5.90;;;5.30;;
51034;SDS011;37062;52.546;13.230;2023-07-20T04:03:38;7.68;;;5.60;;
51034;SDS011;37062;52.546;13.230;2023-07-20T04:06:06;6.20;;;5.60;;
51034;SDS011;37062;52.546;13.230;2023-07-20T04:08:35;6.55;;;5.95;;
51034;SDS011;37062;52.546;13.230;2023-07-20T04:11:03;6.22;;;5.63;;
51034;SDS011;37062;52.546;13.230;2023-07-20T04:13:31;5.85;;;5.22;;
51034;SDS011;37062;52.546;13.230;2023-07-20T04:16:00;6.40;;;5.40;;
51034;SDS011;37062;52.546;13.230;2023-07-20T04:18:29;7.55;;;6.15;;
51034;SDS011;37062;52.546;13.230;2023-07-20T04:20:58;7.38;;;6.68;;
51034;SDS011;37062;52.546;13.230;2023-07-20T04:23:27;6.72;;;6.07;;
51034;SDS011;37062;52.546;13.230;2023-07-20T04:25:55;6.82;;;6.05;;
51034;SDS011;37062;52.546;13.230;2023-07-20T04:28:24;7.25;;;6.55;;
51034;SDS011;37062;52.546;13.230;2023-07-20T04:30:52;7.60;;;6.22;;
51034;SDS011;37062;52.546;13.230;2023-07-20T04:33:21;7.72;;;6.32;;
51034;SDS011;37062;52.546;13.230;2023-07-20T04:35:50;6.72;;;5.95;;
51034;SDS011;37062;52.546;13.230;2023-07-20T04:38:33;6.93;;;6.22;;
51034;SDS011;37062;52.546;13.230;2023-07-20T04:41:21;5.55;;;5.05;;
51034;SDS011;37062;52.546;13.230;2023-07-20T04:43:53;6.72;;;6.13;;
51034;SDS011;37062;52.546;13.230;2023-07-20T04:46:27;7.35;;;5.50;;
51034;SDS011;37062;52.546;13.230;2023-07-20T04:48:58;6.95;;;5.45;;
51034;SDS011;37062;52.546;13.230;2023-07-20T04:51:28;6.28;;;4.80;;
51034;SDS011;37062;52.546;13.230;2023-07-20T04:53:58;7.38;;;5.50;;
51034;SDS011;37062;52.546;13.230;2023-07-20T04:56:31;7.57;;;5.53;;
51034;SDS011;37062;52.546;13.230;2023-07-20T04:59:01;7.72;;;5.90;;
51034;SDS011;37062;52.546;13.230;2023-07-20T05:01:29;7.22;;;4.78;;
51034;SDS011;37062;52.546;13.230;2023-07-20T05:03:57;7.22;;;6.38;;
51034;SDS011;37062;52.546;13.230;2023-07-20T05:06:25;6.32;;;5.60;;
51034;SDS011;37062;52.546;13.230;2023-07-20T05:08:54;9.35;;;6.43;;
51034;SDS011;37062;52.546;13.230;2023-07-20T05:11:23;10.23;;;5.68;;
51034;SDS011;37062;52.546;13.230;2023-07-20T05:13:51;5.00;;;4.60;;
51034;SDS011;37062;52.546;13.230;2023-07-20T05:16:20;7.00;;;5.82;;
51034;SDS011;37062;52.546;13.230;2023-07-20T05:18:49;6.65;;;5.30;;
51034;SDS011;37062;52.546;13.230;2023-07-20T05:21:18;8.40;;;5.80;;
51034;SDS011;37062;52.546;13.230;2023-07-20T05:23:46;8.20;;;6.15;;
51034;SDS011;37062;52.546;13.230;2023-07-20T05:26:14;6.07;;;5.47;;
51034;SDS011;37062;52.546;13.230;2023-07-20T05:28:44;7.32;;;5.22;;
51034;SDS011;37062;52.546;13.230;2023-07-20T05:31:12;9.93;;;5.70;;
51034;SDS011;37062;52.546;13.230;2023-07-20T05:33:40;6.60;;;4.55;;
51034;SDS011;37062;52.546;13.230;2023-07-20T05:36:09;6.22;;;5.63;;
51034;SDS011;37062;52.546;13.230;2023-07-20T05:38:37;6.32;;;5.18;;
51034;SDS011;37062;52.546;13.230;2023-07-20T05:41:05;9.10;;;5.95;;
51034;SDS011;37062;52.546;13.230;2023-07-20T05:43:36;5.65;;;5.10;;
51034;SDS011;37062;52.546;13.230;2023-07-20T05:46:06;6.90;;;5.40;;
51034;SDS011;37062;52.546;13.230;2023-07-20T05:48:34;6.13;;;5.10;;
51034;SDS011;37062;52.546;13.230;2023-07-20T05:51:03;5.93;;;5.35;;
51034;SDS011;37062;52.546;13.230;2023-07-20T05:53:31;7.05;;;5.45;;
51034;SDS011;37062;52.546;13.230;2023-07-20T05:55:59;6.22;;;5.60;;
51034;SDS011;37062;52.546;13.230;2023-07-20T05:58:27;8.10;;;5.93;;
51034;SDS011;37062;52.546;13.230;2023-07-20T06:00:55;6.72;;;6.00;;
51034;SDS011;37062;52.546;13.230;2023-07-20T06:03:25;5.75;;;4.90;;
51034;SDS011;37062;52.546;13.230;2023-07-20T06:05:57;6.13;;;5.53;;
51034;SDS011;37062;52.546;13.230;2023-07-20T06:08:27;4.95;;;4.45;;
51034;SDS011;37062;52.546;13.230;2023-07-20T06:10:56;4.85;;;4.35;;
51034;SDS011;37062;52.546;13.230;2023-07-20T06:13:24;8.45;;;5.55;;
51034;SDS011;37062;52.546;13.230;2023-07-20T06:15:52;6.28;;;4.60;;
51034;SDS011;37062;52.546;13.230;2023-07-20T06:18:22;5.65;;;4.80;;
51034;SDS011;37062;52.546;13.230;2023-07-20T06:20:52;7.93;;;4.40;;
51034;SDS011;37062;52.546;13.230;2023-07-20T06:23:20;4.50;;;4.10;;
51034;SDS011;37062;52.546;13.230;2023-07-20T06:25:49;6.25;;;5.05;;
51034;SDS011;37062;52.546;13.230;2023-07-20T06:28:17;6.03;;;3.97;;
51034;SDS011;37062;52.546;13.230;2023-07-20T06:30:46;4.30;;;3.65;;
51034;SDS011;37062;52.546;13.230;2023-07-20T06:33:14;3.75;;;3.30;;
51034;SDS011;37062;52.546;13.230;2023-07-20T06:35:42;4.78;;;3.20;;
51034;SDS011;37062;52.546;13.230;2023-07-20T06:38:12;2.85;;;2.60;;
51034;SDS011;37062;52.546;13.230;2023-07-20T06:40:43;3.15;;;2.72;;
51034;SDS011;37062;52.546;13.230;2023-07-20T06:43:13;3.80;;;2.00;;
51034;SDS011;37062;52.546;13.230;2023-07-20T06:45:44;3.13;;;2.50;;
51034;SDS011;37062;52.546;13.230;2023-07-20T06:48:18;2.22;;;1.70;;
51034;SDS011;37062;52.546;13.230;2023-07-20T06:50:46;2.80;;;1.70;;
51034;SDS011;37062;52.546;13.230;2023-07-20T06:53:16;3.00;;;1.55;;
51034;SDS011;37062;52.546;13.230;2023-07-20T06:55:44;2.38;;;1.50;;
51034;SDS011;37062;52.546;13.230;2023-07-20T06:58:17;3.40;;;1.63;;
51034;SDS011;37062;52.546;13.230;2023-07-20T07:00:47;3.33;;;1.40;;
51034;SDS011;37062;52.546;13.230;2023-07-20T07:03:16;1.98;;;1.50;;
51034;SDS011;37062;52.546;13.230;2023-07-20T07:05:44;2.40;;;1.65;;
51034;SDS011;37062;52.546;13.230;2023-07-20T07:08:18;1.83;;;1.30;;
51034;SDS011;37062;52.546;13.230;2023-07-20T07:10:46;1.67;;;1.58;;
51034;SDS011;37062;52.546;13.230;2023-07-20T07:13:14;1.83;;;1.52;;
51034;SDS011;37062;52.546;13.230;2023-07-20T07:15:43;3.42;;;1.17;;
51034;SDS011;37062;52.546;13.230;2023-07-20T07:18:12;3.05;;;1.40;;
51034;SDS011;37062;52.546;13.230;2023-07-20T07:20:40;1.80;;;1.15;;
51034;SDS011;37062;52.546;13.230;2023-07-20T07:23:08;1.92;;;1.45;;
51034;SDS011;37062;52.546;13.230;2023-07-20T07:25:38;1.75;;;1.10;;
51034;SDS011;37062;52.546;13.230;2023-07-20T07:28:06;1.00;;;0.95;;
51034;SDS011;37062;52.546;13.230;2023-07-20T07:30:34;1.10;;;0.70;;
51034;SDS011;37062;52.546;13.230;2023-07-20T07:33:03;1.10;;;0.80;;
51034;SDS011;37062;52.546;13.230;2023-07-20T07:35:31;1.00;;;0.88;;
51034;SDS011;37062;52.546;13.230;2023-07-20T07:37:59;1.08;;;0.90;;
51034;SDS011;37062;52.546;13.230;2023-07-20T07:40:49;1.10;;;0.77;;
51034;SDS011;37062;52.546;13.230;2023-07-20T07:43:17;1.10;;;1.00;;
51034;SDS011;37062;52.546;13.230;2023-07-20T07:45:45;3.17;;;0.95;;
51034;SDS011;37062;52.546;13.230;2023-07-20T07:48:13;0.85;;;0.70;;
51034;SDS011;37062;52.546;13.230;2023-07-20T07:50:42;1.20;;;0.70;;
51034;SDS011;37062;52.546;13.230;2023-07-20T07:53:10;2.42;;;1.02;;
51034;SDS011;37062;52.546;13.230;2023-07-20T07:55:38;0.75;;;0.70;;
51034;SDS011;37062;52.546;13.230;2023-07-20T07:58:09;1.20;;;0.80;;
51034;SDS011;37062;52.546;13.230;2023-07-20T08:00:37;0.88;;;0.60;;
51034;SDS011;37062;52.546;13.230;2023-07-20T08:03:08;1.83;;;0.80;;
51034;SDS011;37062;52.546;13.230;2023-07-20T08:05:36;1.38;;;1.02;;
51034;SDS011;37062;52.546;13.230;2023-07-20T08:08:04;3.17;;;0.75;;
51034;SDS011;37062;52.546;13.230;2023-07-20T08:10:32;1.25;;;0.70;;
51034;SDS011;37062;52.546;13.230;2023-07-20T08:13:01;1.08;;;0.90;;
51034;SDS011;37062;52.546;13.230;2023-07-20T08:15:30;1.90;;;0.70;;
51034;SDS011;37062;52.546;13.230;2023-07-20T08:17:58;1.02;;;0.70;;
51034;SDS011;37062;52.546;13.230;2023-07-20T08:20:27;1.30;;;0.80;;
51034;SDS011;37062;52.546;13.230;2023-07-20T08:22:55;1.70;;;0.63;;
51034;SDS011;37062;52.546;13.230;2023-07-20T08:25:24;0.98;;;0.93;;
51034;SDS011;37062;52.546;13.230;2023-07-20T08:27:53;2.97;;;0.90;;
51034;SDS011;37062;52.546;13.230;2023-07-20T08:30:21;1.20;;;0.90;;
51034;SDS011;37062;52.546;13.230;2023-07-20T08:32:51;2.38;;;1.10;;
51034;SDS011;37062;52.546;13.230;2023-07-20T08:35:20;0.70;;;0.60;;
51034;SDS011;37062;52.546;13.230;2023-07-20T08:37:48;0.80;;;0.80;;
51034;SDS011;37062;52.546;13.230;2023-07-20T08:40:17;1.50;;;0.80;;
51034;SDS011;37062;52.546;13.230;2023-07-20T08:42:45;0.88;;;0.57;;
51034;SDS011;37062;52.546;13.230;2023-07-20T08:45:14;0.85;;;0.60;;
51034;SDS011;37062;52.546;13.230;2023-07-20T08:47:44;1.73;;;0.73;;
51034;SDS011;37062;52.546;13.230;2023-07-20T08:50:16;1.25;;;1.05;;
51034;SDS011;37062;52.546;13.230;2023-07-20T08:52:44;3.00;;;2.70;;
51034;SDS011;37062;52.546;13.230;2023-07-20T08:55:13;2.03;;;0.80;;
51034;SDS011;37062;52.546;13.230;2023-07-20T08:57:41;1.13;;;0.80;;
51034;SDS011;37062;52.546;13.230;2023-07-20T09:00:13;2.75;;;2.08;;
51034;SDS011;37062;52.546;13.230;2023-07-20T09:02:44;0.93;;;0.93;;
51034;SDS011;37062;52.546;13.230;2023-07-20T09:05:15;1.05;;;0.90;;
51034;SDS011;37062;52.546;13.230;2023-07-20T09:07:44;0.63;;;0.63;;
51034;SDS011;37062;52.546;13.230;2023-07-20T09:10:12;0.68;;;0.68;;
51034;SDS011;37062;52.546;13.230;2023-07-20T09:12:42;0.60;;;0.50;;
51034;SDS011;37062;52.546;13.230;2023-07-20T09:15:11;1.42;;;0.70;;
51034;SDS011;37062;52.546;13.230;2023-07-20T09:17:39;1.08;;;0.98;;
51034;SDS011;37062;52.546;13.230;2023-07-20T09:20:14;1.35;;;0.80;;
51034;SDS011;37062;52.546;13.230;2023-07-20T09:22:50;1.00;;;0.90;;
51034;SDS011;37062;52.546;13.230;2023-07-20T09:25:19;1.00;;;0.80;;
51034;SDS011;37062;52.546;13.230;2023-07-20T09:27:50;0.98;;;0.60;;
51034;SDS011;37062;52.546;13.230;2023-07-20T09:30:19;0.90;;;0.63;;
51034;SDS011;37062;52.546;13.230;2023-07-20T09:32:56;1.10;;;1.00;;
51034;SDS011;37062;52.546;13.230;2023-07-20T09:35:26;1.45;;;1.17;;
51034;SDS011;37062;52.546;13.230;2023-07-20T09:38:08;1.92;;;1.10;;
51034;SDS011;37062;52.546;13.230;2023-07-20T09:40:39;1.33;;;0.80;;
51034;SDS011;37062;52.546;13.230;2023-07-20T09:43:11;1.25;;;0.90;;
51034;SDS011;37062;52.546;13.230;2023-07-20T09:45:42;1.60;;;0.80;;
51034;SDS011;37062;52.546;13.230;2023-07-20T09:48:14;1.38;;;0.70;;
51034;SDS011;37062;52.546;13.230;2023-07-20T09:50:49;0.70;;;0.65;;
51034;SDS011;37062;52.546;13.230;2023-07-20T09:53:19;0.80;;;0.80;;
51034;SDS011;37062;52.546;13.230;2023-07-20T09:55:47;3.35;;;1.10;;
51034;SDS011;37062;52.546;13.230;2023-07-20T09:58:16;3.20;;;0.90;;
51034;SDS011;37062;52.546;13.230;2023-07-20T10:00:45;0.70;;;0.70;;
51034;SDS011;37062;52.546;13.230;2023-07-20T10:03:20;1.85;;;0.77;;
51034;SDS011;37062;52.546;13.230;2023-07-20T10:05:58;1.38;;;0.80;;
51034;SDS011;37062;52.546;13.230;2023-07-20T10:08:30;3.53;;;0.93;;
51034;SDS011;37062;52.546;13.230;2023-07-20T10:11:05;1.52;;;1.13;;
51034;SDS011;37062;52.546;13.230;2023-07-20T10:13:36;1.02;;;0.77;;
51034;SDS011;37062;52.546;13.230;2023-07-20T10:16:07;2.65;;;1.30;;
51034;SDS011;37062;52.546;13.230;2023-07-20T10:18:41;1.63;;;1.10;;
51034;SDS011;37062;52.546;13.230;2023-07-20T10:21:19;1.00;;;0.73;;
51034;SDS011;37062;52.546;13.230;2023-07-20T10:23:52;1.48;;;0.80;;
51034;SDS011;37062;52.546;13.230;2023-07-20T10:26:24;2.13;;;0.90;;
51034;SDS011;37062;52.546;13.230;2023-07-20T10:28:53;2.13;;;1.00;;
51034;SDS011;37062;52.546;13.230;2023-07-20T10:31:22;2.45;;;1.05;;
51034;SDS011;37062;52.546;13.230;2023-07-20T10:33:51;0.90;;;0.80;;
51034;SDS011;37062;52.546;13.230;2023-07-20T10:36:25;3.45;;;0.90;;
51034;SDS011;37062;52.546;13.230;2023-07-20T10:38:57;1.05;;;0.80;;
51034;SDS011;37062;52.546;13.230;2023-07-20T10:41:28;1.60;;;0.95;;
51034;SDS011;37062;52.546;13.230;2023-07-20T10:43:58;1.33;;;0.77;;
51034;SDS011;37062;52.546;13.230;2023-07-20T10:46:34;1.52;;;0.93;;
51034;SDS011;37062;52.546;13.230;2023-07-20T10:49:13;0.82;;;0.80;;
51034;SDS011;37062;52.546;13.230;2023-07-20T10:51:44;1.23;;;0.80;;
51034;SDS011;37062;52.546;13.230;2023-07-20T10:59:49;1.52;;;0.88;;
51034;SDS011;37062;52.546;13.230;2023-07-20T11:02:18;2.40;;;0.88;;
51034;SDS011;37062;52.546;13.230;2023-07-20T11:04:47;3.35;;;1.70;;
51034;SDS011;37062;52.546;13.230;2023-07-20T11:07:23;1.98;;;1.63;;
51034;SDS011;37062;52.546;13.230;2023-07-20T11:10:14;1.58;;;1.23;;
51034;SDS011;37062;52.546;13.230;2023-07-20T11:15:45;4.80;;;1.80;;
51034;SDS011;37062;52.546;13.230;2023-07-20T11:18:14;1.30;;;0.88;;
51034;SDS011;37062;52.546;13.230;2023-07-20T11:20:42;3.38;;;2.13;;
51034;SDS011;37062;52.546;13.230;2023-07-20T11:23:12;2.40;;;1.10;;
51034;SDS011;37062;52.546;13.230;2023-07-20T11:25:40;0.50;;;0.50;;
51034;SDS011;37062;52.546;13.230;2023-07-20T11:28:09;4.78;;;1.95;;
51034;SDS011;37062;52.546;13.230;2023-07-20T11:30:37;1.30;;;1.10;;
51034;SDS011;37062;52.546;13.230;2023-07-20T11:33:08;1.27;;;1.02;;
51034;SDS011;37062;52.546;13.230;2023-07-20T11:35:41;7.25;;;3.70;;
51034;SDS011;37062;52.546;13.230;2023-07-20T11:38:13;1.77;;;1.20;;
51034;SDS011;37062;52.546;13.230;2023-07-20T11:40:42;2.97;;;1.70;;
51034;SDS011;37062;52.546;13.230;2023-07-20T11:43:11;0.50;;;0.50;;
51034;SDS011;37062;52.546;13.230;2023-07-20T11:45:43;0.73;;;0.70;;
51034;SDS011;37062;52.546;13.230;2023-07-20T11:48:14;1.48;;;1.02;;
51034;SDS011;37062;52.546;13.230;2023-07-20T11:50:43;0.60;;;0.52;;
51034;SDS011;37062;52.546;13.230;2023-07-20T11:53:13;2.85;;;0.80;;
51034;SDS011;37062;52.546;13.230;2023-07-20T11:55:42;3.63;;;0.80;;
51034;SDS011;37062;52.546;13.230;2023-07-20T11:58:10;2.05;;;0.60;;
51034;SDS011;37062;52.546;13.230;2023-07-20T12:00:38;2.20;;;0.88;;
51034;SDS011;37062;52.546;13.230;2023-07-20T12:03:07;2.15;;;0.60;;
51034;SDS011;37062;52.546;13.230;2023-07-20T12:05:38;1.15;;;0.70;;
51034;SDS011;37062;52.546;13.230;2023-07-20T12:08:27;2.05;;;0.70;;
51034;SDS011;37062;52.546;13.230;2023-07-20T12:10:55;2.65;;;0.80;;
51034;SDS011;37062;52.546;13.230;2023-07-20T12:13:24;1.80;;;0.70;;
51034;SDS011;37062;52.546;13.230;2023-07-20T12:16:06;0.73;;;0.60;;
51034;SDS011;37062;52.546;13.230;2023-07-20T12:18:37;0.63;;;0.60;;
51034;SDS011;37062;52.546;13.230;2023-07-20T12:21:05;0.90;;;0.60;;
51034;SDS011;37062;52.546;13.230;2023-07-20T12:23:36;1.15;;;0.80;;
51034;SDS011;37062;52.546;13.230;2023-07-20T12:26:06;2.30;;;0.77;;
51034;SDS011;37062;52.546;13.230;2023-07-20T12:28:38;0.50;;;0.50;;
51034;SDS011;37062;52.546;13.230;2023-07-20T12:31:07;0.82;;;0.70;;
51034;SDS011;37062;52.546;13.230;2023-07-20T12:33:37;0.80;;;0.80;;
51034;SDS011;37062;52.546;13.230;2023-07-20T12:36:05;1.05;;;0.70;;
51034;SDS011;37062;52.546;13.230;2023-07-20T12:38:34;0.75;;;0.70;;
51034;SDS011;37062;52.546;13.230;2023-07-20T12:41:03;0.80;;;0.60;;
51034;SDS011;37062;52.546;13.230;2023-07-20T12:43:31;1.58;;;0.82;;
51034;SDS011;37062;52.546;13.230;2023-07-20T12:46:00;1.00;;;0.80;;
51034;SDS011;37062;52.546;13.230;2023-07-20T12:48:28;1.35;;;0.85;;
51034;SDS011;37062;52.546;13.230;2023-07-20T12:50:57;1.50;;;0.70;;
51034;SDS011;37062;52.546;13.230;2023-07-20T12:53:25;1.42;;;0.65;;
51034;SDS011;37062;52.546;13.230;2023-07-20T12:55:55;1.13;;;0.50;;
51034;SDS011;37062;52.546;13.230;2023-07-20T12:58:23;1.45;;;0.70;;
51034;SDS011;37062;52.546;13.230;2023-07-20T13:00:51;0.60;;;0.55;;
51034;SDS011;37062;52.546;13.230;2023-07-20T13:03:19;3.97;;;1.00;;
51034;SDS011;37062;52.546;13.230;2023-07-20T13:05:50;5.97;;;2.78;;
51034;SDS011;37062;52.546;13.230;2023-07-20T13:08:22;2.35;;;0.80;;
51034;SDS011;37062;52.546;13.230;2023-07-20T13:10:52;0.63;;;0.60;;
51034;SDS011;37062;52.546;13.230;2023-07-20T13:13:21;17.88;;;9.55;;
51034;SDS011;37062;52.546;13.230;2023-07-20T13:15:50;2.38;;;0.85;;
51034;SDS011;37062;52.546;13.230;2023-07-20T13:18:18;1.05;;;0.95;;
51034;SDS011;37062;52.546;13.230;2023-07-20T13:20:46;12.80;;;7.05;;
51034;SDS011;37062;52.546;13.230;2023-07-20T13:23:14;0.80;;;0.73;;
51034;SDS011;37062;52.546;13.230;2023-07-20T13:25:43;1.95;;;0.88;;
51034;SDS011;37062;52.546;13.230;2023-07-20T13:28:11;1.10;;;0.70;;
51034;SDS011;37062;52.546;13.230;2023-07-20T13:30:40;1.92;;;0.77;;
51034;SDS011;37062;52.546;13.230;2023-07-20T13:33:11;1.23;;;0.77;;
51034;SDS011;37062;52.546;13.230;2023-07-20T13:35:44;0.40;;;0.40;;
51034;SDS011;37062;52.546;13.230;2023-07-20T13:38:15;0.82;;;0.60;;
51034;SDS011;37062;52.546;13.230;2023-07-20T13:40:43;0.60;;;0.60;;
51034;SDS011;37062;52.546;13.230;2023-07-20T13:43:12;0.68;;;0.63;;
51034;SDS011;37062;52.546;13.230;2023-07-20T13:45:41;0.60;;;0.55;;
51034;SDS011;37062;52.546;13.230;2023-07-20T13:48:10;0.80;;;0.50;;
51034;SDS011;37062;52.546;13.230;2023-07-20T13:50:42;0.82;;;0.63;;
51034;SDS011;37062;52.546;13.230;2023-07-20T13:53:24;1.92;;;0.63;;
51034;SDS011;37062;52.546;13.230;2023-07-20T13:55:57;2.55;;;0.70;;
51034;SDS011;37062;52.546;13.230;2023-07-20T13:58:28;0.90;;;0.60;;
51034;SDS011;37062;52.546;13.230;2023-07-20T14:00:58;0.68;;;0.60;;
51034;SDS011;37062;52.546;13.230;2023-07-20T14:03:27;5.57;;;0.60;;
51034;SDS011;37062;52.546;13.230;2023-07-20T14:05:55;0.88;;;0.65;;
51034;SDS011;37062;52.546;13.230;2023-07-20T14:08:27;0.85;;;0.80;;
51034;SDS011;37062;52.546;13.230;2023-07-20T14:10:56;0.80;;;0.65;;
51034;SDS011;37062;52.546;13.230;2023-07-20T14:13:27;1.08;;;0.73;;
51034;SDS011;37062;52.546;13.230;2023-07-20T14:16:14;0.80;;;0.70;;
51034;SDS011;37062;52.546;13.230;2023-07-20T14:18:42;1.10;;;0.75;;
51034;SDS011;37062;52.546;13.230;2023-07-20T14:21:15;1.05;;;0.70;;
51034;SDS011;37062;52.546;13.230;2023-07-20T14:23:44;0.82;;;0.73;;
51034;SDS011;37062;52.546;13.230;2023-07-20T14:26:13;1.65;;;0.55;;
51034;SDS011;37062;52.546;13.230;2023-07-20T14:28:41;0.50;;;0.50;;
51034;SDS011;37062;52.546;13.230;2023-07-20T14:31:10;0.80;;;0.80;;
51034;SDS011;37062;52.546;13.230;2023-07-20T14:33:40;1.60;;;0.70;;
51034;SDS011;37062;52.546;13.230;2023-07-20T14:36:08;0.70;;;0.70;;
51034;SDS011;37062;52.546;13.230;2023-07-20T14:38:37;0.70;;;0.60;;
51034;SDS011;37062;52.546;13.230;2023-07-20T14:41:06;1.17;;;0.70;;
51034;SDS011;37062;52.546;13.230;2023-07-20T14:43:35;0.65;;;0.60;;
51034;SDS011;37062;52.546;13.230;2023-07-20T14:46:03;1.77;;;0.60;;
51034;SDS011;37062;52.546;13.230;2023-07-20T14:48:31;1.90;;;0.98;;
51034;SDS011;37062;52.546;13.230;2023-07-20T14:51:01;0.82;;;0.60;;
51034;SDS011;37062;52.546;13.230;2023-07-20T14:53:31;1.42;;;0.90;;
51034;SDS011;37062;52.546;13.230;2023-07-20T14:56:02;0.80;;;0.60;;
51034;SDS011;37062;52.546;13.230;2023-07-20T14:58:31;2.75;;;0.70;;
51034;SDS011;37062;52.546;13.230;2023-07-20T15:01:01;1.92;;;0.95;;
51034;SDS011;37062;52.546;13.230;2023-07-20T15:03:30;2.35;;;0.80;;
51034;SDS011;37062;52.546;13.230;2023-07-20T15:06:00;1.30;;;0.90;;
51034;SDS011;37062;52.546;13.230;2023-07-20T15:08:30;1.60;;;0.93;;